Time;durP1;ratioP1;P1;durP2;ratioP2;P2;SDS_P1;SDS_P2;PMS_P1;PMS_P2;Temp;Humidity;BMP_temperature;BMP_pressure;BME280_temperature;BME280_humidity;BME280_pressure;Samples;Min_cycle;Max_cycle;Signal;HPM_P1;HPM_P2
2022/06/22 00:02:13;;;;;;;7.55;5.88;;;;;;;;;;4983356;28;20190;-74
2022/06/22 00:04:46;;;;;;;9.30;6.13;;;;;;;;;;5002467;28;20186;-74
2022/06/22 00:07:23;;;;;;;8.70;6.60;;;;;;;;;;5002186;28;20195;-73
2022/06/22 00:09:53;;;;;;;7.68;6.00;;;;;;;;;;5009429;28;20711;-73
2022/06/22 00:12:21;;;;;;;9.25;6.65;;;;;;;;;;5002694;28;20206;-71
2022/06/22 00:14:48;;;;;;;7.40;5.30;;;;;;;;;;5005418;28;20183;-71
2022/06/22 00:17:20;;;;;;;11.70;6.68;;;;;;;;;;5005732;28;20267;-71
2022/06/22 00:19:47;;;;;;;11.02;6.68;;;;;;;;;;4997299;28;20326;-71
2022/06/22 00:22:25;;;;;;;9.65;6.70;;;;;;;;;;5002408;28;20225;-71
2022/06/22 00:24:58;;;;;;;9.95;6.65;;;;;;;;;;4986375;28;20277;-73
2022/06/22 00:27:28;;;;;;;8.55;6.82;;;;;;;;;;5009801;28;20487;-71
2022/06/22 00:30:07;;;;;;;7.32;6.38;;;;;;;;;;5006114;28;20195;-71
2022/06/22 00:32:32;;;;;;;12.05;6.85;;;;;;;;;;5011289;28;20178;-71
2022/06/22 00:34:57;;;;;;;7.80;7.00;;;;;;;;;;5009280;28;20186;-73
2022/06/22 00:37:30;;;;;;;9.30;6.57;;;;;;;;;;4999830;28;20191;-73
2022/06/22 00:39:58;;;;;;;10.27;7.35;;;;;;;;;;4999850;28;20221;-73
2022/06/22 00:42:32;;;;;;;12.93;6.90;;;;;;;;;;5011880;28;20480;-73
2022/06/22 00:45:08;;;;;;;12.35;8.00;;;;;;;;;;5002230;28;20742;-73
2022/06/22 00:47:45;;;;;;;11.20;8.32;;;;;;;;;;5012371;28;20220;-73
2022/06/22 00:50:16;;;;;;;11.70;7.40;;;;;;;;;;5015747;28;20221;-73
2022/06/22 00:52:41;;;;;;;13.95;8.40;;;;;;;;;;5001062;28;20271;-73
2022/06/22 00:55:36;;;;;;;10.55;7.72;;;;;;;;;;5010241;28;20269;-74
2022/06/22 00:58:07;;;;;;;11.65;8.07;;;;;;;;;;4936175;28;20194;-73
2022/06/22 01:00:33;;;;;;;18.13;9.38;;;;;;;;;;5008652;28;20202;-71
2022/06/22 01:03:02;;;;;;;12.85;7.93;;;;;;;;;;5011688;28;20190;-73
2022/06/22 01:05:40;;;;;;;14.57;8.88;;;;;;;;;;5010312;28;20718;-70
2022/06/22 01:08:12;;;;;;;8.70;7.70;;;;;;;;;;5010539;28;20171;-71
2022/06/22 01:10:45;;;;;;;12.82;8.45;;;;;;;;;;5006251;28;20203;-73
2022/06/22 01:13:15;;;;;;;10.25;7.90;;;;;;;;;;5004448;28;20756;-73
2022/06/22 01:15:46;;;;;;;13.15;8.68;;;;;;;;;;4989722;28;20202;-73
2022/06/22 01:18:14;;;;;;;17.00;10.50;;;;;;;;;;5011538;28;20174;-73
2022/06/22 01:20:45;;;;;;;13.65;9.18;;;;;;;;;;4997404;28;20202;-73
2022/06/22 01:23:16;;;;;;;14.27;8.93;;;;;;;;;;5013324;28;20282;-73
2022/06/22 01:25:48;;;;;;;11.80;9.15;;;;;;;;;;5015303;28;20232;-73
2022/06/22 01:28:14;;;;;;;14.15;8.95;;;;;;;;;;5001782;28;20510;-73
2022/06/22 01:30:41;;;;;;;14.52;9.50;;;;;;;;;;5000161;28;20261;-73
2022/06/22 01:33:27;;;;;;;14.15;9.52;;;;;;;;;;5007124;28;20254;-72
2022/06/22 01:35:54;;;;;;;12.68;8.40;;;;;;;;;;4984901;28;20574;-73
2022/06/22 01:38:24;;;;;;;10.75;9.05;;;;;;;;;;5006578;28;20171;-73
2022/06/22 01:40:54;;;;;;;13.02;9.88;;;;;;;;;;5015895;28;20213;-73
2022/06/22 01:43:24;;;;;;;12.68;9.25;;;;;;;;;;5008870;28;20178;-73
2022/06/22 01:45:55;;;;;;;14.07;10.15;;;;;;;;;;5008980;28;20173;-73
2022/06/22 01:48:40;;;;;;;13.60;9.97;;;;;;;;;;5002617;28;20207;-73
2022/06/22 01:51:29;;;;;;;14.15;9.20;;;;;;;;;;4992491;28;20281;-73
2022/06/22 01:54:08;;;;;;;14.48;9.25;;;;;;;;;;4991904;28;20183;-73
2022/06/22 01:56:41;;;;;;;18.67;10.30;;;;;;;;;;5009631;28;20316;-73
2022/06/22 01:59:21;;;;;;;11.45;9.18;;;;;;;;;;5008849;28;20179;-73
2022/06/22 02:01:55;;;;;;;10.82;9.07;;;;;;;;;;5016810;28;20201;-73
2022/06/22 02:04:22;;;;;;;12.27;8.82;;;;;;;;;;4989957;28;20178;-73
2022/06/22 02:09:53;;;;;;;14.07;8.98;;;;;;;;;;5009328;28;20563;-73
2022/06/22 02:12:20;;;;;;;12.95;9.98;;;;;;;;;;5004724;28;20179;-72
2022/06/22 02:14:49;;;;;;;17.85;10.10;;;;;;;;;;5021221;28;20197;-73
2022/06/22 02:17:18;;;;;;;17.42;10.00;;;;;;;;;;5009390;28;20218;-73
2022/06/22 02:19:45;;;;;;;12.40;10.02;;;;;;;;;;5017720;28;20199;-72
2022/06/22 02:22:12;;;;;;;10.60;9.18;;;;;;;;;;5013175;28;20683;-73
2022/06/22 02:24:44;;;;;;;11.93;9.23;;;;;;;;;;5004404;28;20721;-72
2022/06/22 02:27:22;;;;;;;13.52;9.63;;;;;;;;;;5006750;28;20187;-72
2022/06/22 02:29:49;;;;;;;12.07;9.30;;;;;;;;;;5008765;28;20270;-73
2022/06/22 02:32:16;;;;;;;10.40;9.35;;;;;;;;;;5008537;28;20187;-73
2022/06/22 02:34:42;;;;;;;14.23;10.95;;;;;;;;;;5016033;28;20187;-73
2022/06/22 02:37:08;;;;;;;13.65;9.90;;;;;;;;;;5020538;28;20186;-73
2022/06/22 02:39:35;;;;;;;13.73;9.77;;;;;;;;;;5016899;28;20198;-73
2022/06/22 02:44:46;;;;;;;13.88;9.68;;;;;;;;;;5008613;28;20714;-73
2022/06/22 02:47:14;;;;;;;17.23;10.33;;;;;;;;;;5014996;28;20167;-73
2022/06/22 02:49:50;;;;;;;14.68;10.45;;;;;;;;;;4995447;28;20248;-73
2022/06/22 02:52:16;;;;;;;14.97;10.43;;;;;;;;;;5019733;28;20214;-73
2022/06/22 02:54:44;;;;;;;16.53;10.70;;;;;;;;;;5016411;28;20276;-72
2022/06/22 02:57:12;;;;;;;13.97;10.23;;;;;;;;;;5011919;28;20266;-74
2022/06/22 02:59:38;;;;;;;10.80;8.63;;;;;;;;;;5003122;28;20567;-72
2022/06/22 03:02:04;;;;;;;19.57;9.50;;;;;;;;;;5010152;28;20182;-72
2022/06/22 03:04:30;;;;;;;19.23;11.40;;;;;;;;;;5016026;28;20195;-72
2022/06/22 03:06:55;;;;;;;15.23;10.67;;;;;;;;;;5019578;28;20668;-72
2022/06/22 03:09:23;;;;;;;14.87;10.50;;;;;;;;;;4993506;28;20217;-73
2022/06/22 03:11:50;;;;;;;14.93;10.20;;;;;;;;;;5017216;28;20804;-72
2022/06/22 03:14:21;;;;;;;15.07;10.10;;;;;;;;;;4991445;28;20233;-72
2022/06/22 03:16:49;;;;;;;13.33;9.77;;;;;;;;;;4987042;28;20183;-72
2022/06/22 03:19:17;;;;;;;13.40;11.37;;;;;;;;;;5006851;28;20187;-72
2022/06/22 03:21:42;;;;;;;14.47;10.20;;;;;;;;;;5013179;28;20572;-73
2022/06/22 03:24:14;;;;;;;14.70;9.97;;;;;;;;;;5008687;28;20259;-72
2022/06/22 03:26:44;;;;;;;13.17;9.90;;;;;;;;;;5010568;28;20550;-73
2022/06/22 03:29:23;;;;;;;13.18;10.57;;;;;;;;;;5018599;28;20660;-72
2022/06/22 03:31:51;;;;;;;17.30;10.20;;;;;;;;;;5018902;28;20234;-72
2022/06/22 03:34:21;;;;;;;21.53;11.10;;;;;;;;;;4997950;28;20238;-72
2022/06/22 03:36:53;;;;;;;14.40;10.20;;;;;;;;;;4995460;28;20281;-72
2022/06/22 03:39:20;;;;;;;11.77;10.53;;;;;;;;;;5009266;28;20209;-72
2022/06/22 03:41:55;;;;;;;11.53;10.33;;;;;;;;;;5019825;28;20264;-72
2022/06/22 03:44:26;;;;;;;12.37;10.00;;;;;;;;;;5004726;28;20178;-72
2022/06/22 03:46:57;;;;;;;14.70;9.97;;;;;;;;;;5008673;28;20189;-72
2022/06/22 03:49:34;;;;;;;12.43;10.87;;;;;;;;;;5013722;28;20183;-73
2022/06/22 03:52:15;;;;;;;11.50;9.87;;;;;;;;;;5005081;28;20195;-72
2022/06/22 03:54:48;;;;;;;12.40;10.73;;;;;;;;;;5009134;28;20656;-72
2022/06/22 03:57:17;;;;;;;10.40;9.30;;;;;;;;;;5014993;28;20179;-72
2022/06/22 03:59:44;;;;;;;13.43;10.30;;;;;;;;;;5011265;28;20207;-72
2022/06/22 04:02:09;;;;;;;11.20;9.87;;;;;;;;;;5005784;28;20199;-72
2022/06/22 04:04:35;;;;;;;13.07;10.37;;;;;;;;;;4994097;28;20183;-72
2022/06/22 04:07:01;;;;;;;14.10;10.00;;;;;;;;;;5002056;28;20179;-72
2022/06/22 04:09:28;;;;;;;15.27;9.68;;;;;;;;;;5009597;28;20180;-72
2022/06/22 04:12:00;;;;;;;11.07;8.82;;;;;;;;;;4995922;28;20210;-72
2022/06/22 04:14:25;;;;;;;15.40;10.03;;;;;;;;;;5005303;28;20194;-71
2022/06/22 04:16:53;;;;;;;12.07;9.20;;;;;;;;;;5009375;28;20179;-72
2022/06/22 04:19:22;;;;;;;10.88;9.65;;;;;;;;;;5007905;28;20233;-73
2022/06/22 04:21:50;;;;;;;13.15;9.77;;;;;;;;;;4998816;28;20223;-72
2022/06/22 04:24:18;;;;;;;13.73;9.75;;;;;;;;;;5004592;28;20175;-73
2022/06/22 04:26:52;;;;;;;14.43;9.93;;;;;;;;;;5012512;28;20205;-72
2022/06/22 04:29:20;;;;;;;12.82;8.57;;;;;;;;;;5004326;28;20199;-73
2022/06/22 04:31:54;;;;;;;12.93;8.88;;;;;;;;;;5017288;28;20236;-73
2022/06/22 04:34:33;;;;;;;11.02;7.75;;;;;;;;;;4983723;28;20228;-73
2022/06/22 04:37:01;;;;;;;9.13;8.13;;;;;;;;;;4989004;28;20266;-73
2022/06/22 04:39:30;;;;;;;9.02;7.38;;;;;;;;;;4979331;28;20245;-73
2022/06/22 04:41:56;;;;;;;9.45;7.35;;;;;;;;;;5010705;28;20272;-73
2022/06/22 04:44:24;;;;;;;12.23;5.88;;;;;;;;;;5012538;28;20183;-73
2022/06/22 04:46:52;;;;;;;9.55;6.93;;;;;;;;;;4977882;28;20241;-73
2022/06/22 04:49:24;;;;;;;11.93;7.40;;;;;;;;;;5008353;28;20198;-73
2022/06/22 04:52:13;;;;;;;8.60;6.45;;;;;;;;;;5015608;28;20300;-73
2022/06/22 04:54:40;;;;;;;8.93;5.65;;;;;;;;;;5005447;28;20566;-73
2022/06/22 04:57:08;;;;;;;7.10;6.40;;;;;;;;;;4996200;28;20193;-73
2022/06/22 04:59:34;;;;;;;7.35;5.72;;;;;;;;;;5010419;28;20206;-72
2022/06/22 05:02:01;;;;;;;9.50;7.07;;;;;;;;;;5004405;28;20175;-73
2022/06/22 05:04:29;;;;;;;7.40;6.55;;;;;;;;;;5010470;28;20649;-72
2022/06/22 05:07:03;;;;;;;7.07;6.28;;;;;;;;;;4998907;28;20194;-73
2022/06/22 05:09:34;;;;;;;16.52;7.00;;;;;;;;;;5011572;28;20175;-73
2022/06/22 05:12:00;;;;;;;8.95;6.95;;;;;;;;;;5016677;28;20668;-73
2022/06/22 05:14:27;;;;;;;9.10;6.43;;;;;;;;;;5012116;28;20179;-72
2022/06/22 05:16:57;;;;;;;10.25;6.78;;;;;;;;;;5007521;28;20249;-73
2022/06/22 05:19:24;;;;;;;8.30;6.25;;;;;;;;;;4995463;28;20174;-72
2022/06/22 05:21:49;;;;;;;9.10;5.68;;;;;;;;;;5010571;28;20202;-72
2022/06/22 05:24:32;;;;;;;9.23;6.80;;;;;;;;;;5016013;28;20236;-72
2022/06/22 05:26:59;;;;;;;6.70;5.55;;;;;;;;;;5003710;28;20167;-72
2022/06/22 05:29:28;;;;;;;8.23;6.20;;;;;;;;;;5005148;28;20270;-73
2022/06/22 05:31:58;;;;;;;9.52;5.75;;;;;;;;;;5006070;28;20190;-73
2022/06/22 05:34:29;;;;;;;6.55;5.60;;;;;;;;;;5010109;28;20175;-73
2022/06/22 05:36:57;;;;;;;8.45;5.28;;;;;;;;;;5008800;28;20183;-73
2022/06/22 05:39:22;;;;;;;6.95;5.53;;;;;;;;;;5005197;28;20177;-73
2022/06/22 05:41:47;;;;;;;8.57;5.90;;;;;;;;;;4992493;28;20199;-73
2022/06/22 05:44:14;;;;;;;9.23;5.55;;;;;;;;;;5014778;28;20197;-72
2022/06/22 05:46:41;;;;;;;10.02;5.93;;;;;;;;;;5009890;28;20225;-73
2022/06/22 05:49:09;;;;;;;6.05;4.78;;;;;;;;;;5011382;28;20199;-72
2022/06/22 05:51:40;;;;;;;7.95;4.72;;;;;;;;;;5038182;23;20799;-74
2022/06/22 05:54:14;;;;;;;6.82;5.47;;;;;;;;;;5029414;28;20166;-74
2022/06/22 05:56:43;;;;;;;7.85;5.70;;;;;;;;;;5018183;28;20211;-74
2022/06/22 05:59:16;;;;;;;6.47;4.97;;;;;;;;;;5032505;28;20184;-74
2022/06/22 06:01:59;;;;;;;11.45;5.22;;;;;;;;;;5029077;28;20216;-74
2022/06/22 06:04:28;;;;;;;9.02;6.07;;;;;;;;;;5032666;28;20178;-74
2022/06/22 06:06:59;;;;;;;6.45;4.15;;;;;;;;;;5026472;28;20194;-74
2022/06/22 06:09:25;;;;;;;8.70;5.05;;;;;;;;;;5028534;28;20178;-73
2022/06/22 06:11:56;;;;;;;10.18;4.38;;;;;;;;;;5027203;28;20244;-74
2022/06/22 06:14:26;;;;;;;5.85;4.35;;;;;;;;;;5029220;28;20640;-73
2022/06/22 06:16:54;;;;;;;7.78;4.00;;;;;;;;;;5031352;28;20217;-74
2022/06/22 06:19:21;;;;;;;7.95;4.25;;;;;;;;;;5027858;28;20282;-74
2022/06/22 06:21:49;;;;;;;6.05;4.10;;;;;;;;;;5028800;28;20200;-74
2022/06/22 06:24:16;;;;;;;4.72;3.70;;;;;;;;;;5032566;28;20183;-74
2022/06/22 06:29:45;;;;;;;4.53;3.35;;;;;;;;;;5021068;28;20193;-74
2022/06/22 06:32:25;;;;;;;6.35;3.65;;;;;;;;;;5032002;28;20239;-74
2022/06/22 06:34:55;;;;;;;7.22;3.58;;;;;;;;;;5029156;28;20264;-74
2022/06/22 06:37:27;;;;;;;5.07;3.60;;;;;;;;;;5031182;28;20918;-74
2022/06/22 06:39:54;;;;;;;6.35;3.50;;;;;;;;;;5004828;28;20210;-74
2022/06/22 06:42:29;;;;;;;10.55;3.83;;;;;;;;;;5023103;28;20201;-74
2022/06/22 06:44:55;;;;;;;10.88;4.50;;;;;;;;;;5011461;28;20173;-74
2022/06/22 06:47:25;;;;;;;6.93;3.80;;;;;;;;;;5023152;28;20178;-74
2022/06/22 06:49:50;;;;;;;6.85;3.78;;;;;;;;;;5030891;28;20210;-74
2022/06/22 06:52:28;;;;;;;4.87;3.43;;;;;;;;;;5030983;28;20229;-74
2022/06/22 06:55:09;;;;;;;6.80;3.63;;;;;;;;;;5031403;28;20462;-74
2022/06/22 06:57:35;;;;;;;7.95;3.95;;;;;;;;;;5030696;28;20261;-74
2022/06/22 07:00:04;;;;;;;7.22;3.38;;;;;;;;;;5031965;28;20360;-74
2022/06/22 07:02:38;;;;;;;4.57;3.13;;;;;;;;;;5023282;28;20179;-74
2022/06/22 07:05:05;;;;;;;5.35;3.40;;;;;;;;;;5017986;28;20194;-74
2022/06/22 07:07:31;;;;;;;6.10;2.95;;;;;;;;;;5031467;28;20175;-74
2022/06/22 07:09:57;;;;;;;6.55;3.30;;;;;;;;;;5013982;28;20182;-74
2022/06/22 07:12:49;;;;;;;6.53;3.13;;;;;;;;;;5032033;28;20638;-74
2022/06/22 07:15:16;;;;;;;5.57;3.63;;;;;;;;;;5016126;28;20237;-74
2022/06/22 07:17:42;;;;;;;5.90;3.10;;;;;;;;;;5028550;28;20210;-74
2022/06/22 07:20:25;;;;;;;6.40;2.75;;;;;;;;;;5030108;28;20205;-74
2022/06/22 07:23:00;;;;;;;4.88;3.00;;;;;;;;;;5025205;28;20718;-74
2022/06/22 07:25:28;;;;;;;7.55;2.78;;;;;;;;;;5028407;28;20184;-74
2022/06/22 07:27:54;;;;;;;3.97;2.67;;;;;;;;;;5027439;28;20533;-74
2022/06/22 07:30:19;;;;;;;4.65;2.50;;;;;;;;;;5031154;28;20198;-74
2022/06/22 07:32:55;;;;;;;4.65;2.80;;;;;;;;;;5030704;28;20185;-71
2022/06/22 07:35:24;;;;;;;5.15;2.70;;;;;;;;;;5028585;28;20170;-71
2022/06/22 07:38:02;;;;;;;5.82;3.05;;;;;;;;;;5025141;28;20174;-71
2022/06/22 07:40:28;;;;;;;9.30;3.00;;;;;;;;;;5018798;28;20268;-69
2022/06/22 07:42:54;;;;;;;8.32;2.78;;;;;;;;;;5023191;28;20546;-71
2022/06/22 07:45:21;;;;;;;11.18;3.00;;;;;;;;;;5006620;28;20240;-71
2022/06/22 07:47:55;;;;;;;3.58;2.50;;;;;;;;;;5005233;28;20187;-71
2022/06/22 07:50:29;;;;;;;4.30;3.35;;;;;;;;;;4993420;28;20217;-71
2022/06/22 07:53:13;;;;;;;5.90;2.90;;;;;;;;;;5008193;28;20184;-70
2022/06/22 07:55:43;;;;;;;9.02;3.63;;;;;;;;;;5007991;28;20191;-70
2022/06/22 07:58:17;;;;;;;5.10;2.78;;;;;;;;;;5007259;28;20187;-71
2022/06/22 08:00:44;;;;;;;4.78;3.10;;;;;;;;;;5007481;28;20644;-71
2022/06/22 08:03:18;;;;;;;5.88;3.15;;;;;;;;;;5006314;28;20215;-71
2022/06/22 08:05:44;;;;;;;6.68;2.53;;;;;;;;;;4982270;28;20269;-71
2022/06/22 08:08:09;;;;;;;3.97;2.55;;;;;;;;;;5013968;28;20702;-71
2022/06/22 08:10:47;;;;;;;6.17;2.50;;;;;;;;;;5029499;28;20210;-71
2022/06/22 08:13:23;;;;;;;5.55;1.90;;;;;;;;;;5030330;28;20547;-71
2022/06/22 08:16:03;;;;;;;5.30;2.08;;;;;;;;;;5028866;28;20170;-71
2022/06/22 08:18:29;;;;;;;4.40;2.58;;;;;;;;;;5027810;28;20237;-71
2022/06/22 08:20:55;;;;;;;8.60;2.55;;;;;;;;;;5027312;28;20646;-71
2022/06/22 08:23:22;;;;;;;6.63;2.30;;;;;;;;;;5018850;28;20304;-71
2022/06/22 08:25:49;;;;;;;7.18;2.30;;;;;;;;;;5003184;28;21142;-71
2022/06/22 08:28:16;;;;;;;6.95;2.88;;;;;;;;;;5005570;28;20179;-71
2022/06/22 08:30:41;;;;;;;7.45;2.45;;;;;;;;;;5007264;28;20325;-71
2022/06/22 08:33:10;;;;;;;4.00;2.20;;;;;;;;;;5008889;28;20183;-71
2022/06/22 08:35:37;;;;;;;4.47;2.65;;;;;;;;;;5006449;28;21499;-71
2022/06/22 08:38:21;;;;;;;8.15;2.92;;;;;;;;;;5005664;28;20190;-71
2022/06/22 08:40:56;;;;;;;4.13;2.42;;;;;;;;;;5017767;28;20237;-71
2022/06/22 08:43:42;;;;;;;3.88;1.90;;;;;;;;;;5011205;28;20533;-71
2022/06/22 08:46:07;;;;;;;6.40;1.92;;;;;;;;;;5009253;28;20197;-71
2022/06/22 08:48:35;;;;;;;2.63;1.43;;;;;;;;;;5018696;28;20269;-71
2022/06/22 08:51:00;;;;;;;5.32;2.10;;;;;;;;;;5029779;28;20209;-72
2022/06/22 08:53:34;;;;;;;4.50;2.17;;;;;;;;;;5029661;28;20248;-71
2022/06/22 08:55:59;;;;;;;3.20;1.90;;;;;;;;;;5010526;28;20565;-72
2022/06/22 08:58:29;;;;;;;3.93;2.50;;;;;;;;;;5027401;28;20182;-71
2022/06/22 09:01:23;;;;;;;4.13;2.42;;;;;;;;;;5026562;28;20237;-71
2022/06/22 09:03:56;;;;;;;4.85;1.83;;;;;;;;;;5011803;28;20248;-71
2022/06/22 09:06:24;;;;;;;5.55;1.90;;;;;;;;;;5028612;28;20179;-71
2022/06/22 09:09:01;;;;;;;4.55;1.90;;;;;;;;;;5027962;28;20178;-71
2022/06/22 09:11:32;;;;;;;4.20;2.05;;;;;;;;;;5024995;28;20202;-71
2022/06/22 09:13:57;;;;;;;3.40;2.00;;;;;;;;;;5027049;28;20182;-71
2022/06/22 09:16:41;;;;;;;5.77;2.07;;;;;;;;;;5027454;28;20177;-71
2022/06/22 09:19:13;;;;;;;3.83;2.28;;;;;;;;;;5007391;28;20806;-71
2022/06/22 09:22:01;;;;;;;3.45;1.80;;;;;;;;;;5005803;28;20306;-71
2022/06/22 09:24:32;;;;;;;2.53;1.83;;;;;;;;;;5005771;28;20240;-71
2022/06/22 09:27:10;;;;;;;8.10;2.67;;;;;;;;;;5004204;28;20695;-71
2022/06/22 09:29:35;;;;;;;8.00;2.75;;;;;;;;;;5007043;28;20173;-71
2022/06/22 09:32:18;;;;;;;2.47;1.93;;;;;;;;;;5007110;28;20773;-71
2022/06/22 09:34:49;;;;;;;4.45;1.70;;;;;;;;;;5005726;28;20182;-71
2022/06/22 09:37:17;;;;;;;2.95;2.05;;;;;;;;;;5003105;28;20202;-71
2022/06/22 09:39:52;;;;;;;3.88;2.00;;;;;;;;;;5001812;28;20237;-71
2022/06/22 09:42:23;;;;;;;4.45;2.22;;;;;;;;;;5001640;28;20198;-71
2022/06/22 09:44:57;;;;;;;4.28;1.92;;;;;;;;;;5004464;28;20618;-71
2022/06/22 09:47:40;;;;;;;6.43;1.67;;;;;;;;;;5006298;28;20184;-71
2022/06/22 09:50:08;;;;;;;3.95;1.40;;;;;;;;;;5004806;28;20186;-71
2022/06/22 09:52:39;;;;;;;3.45;1.42;;;;;;;;;;5004841;28;20187;-71
2022/06/22 09:58:05;;;;;;;3.30;1.75;;;;;;;;;;5006922;28;20683;-71
2022/06/22 10:00:37;;;;;;;2.83;1.40;;;;;;;;;;5003894;28;20269;-71
2022/06/22 10:03:14;;;;;;;2.78;1.30;;;;;;;;;;5004038;28;20178;-70
2022/06/22 10:05:46;;;;;;;2.15;1.30;;;;;;;;;;5005897;28;20225;-71
2022/06/22 10:08:11;;;;;;;3.25;1.58;;;;;;;;;;5003213;28;20769;-71
2022/06/22 10:10:48;;;;;;;2.83;1.48;;;;;;;;;;5005414;28;20205;-71
2022/06/22 10:13:32;;;;;;;3.33;1.63;;;;;;;;;;5012735;28;20178;-71
2022/06/22 10:16:06;;;;;;;2.60;1.20;;;;;;;;;;4991827;28;20187;-71
2022/06/22 10:18:37;;;;;;;3.50;1.20;;;;;;;;;;5003394;28;20226;-71
2022/06/22 10:21:05;;;;;;;2.25;1.23;;;;;;;;;;5008867;28;20245;-71
2022/06/22 10:23:40;;;;;;;2.75;1.02;;;;;;;;;;5009200;28;20649;-71
2022/06/22 10:26:12;;;;;;;3.75;1.10;;;;;;;;;;5009254;28;20213;-71
2022/06/22 10:28:56;;;;;;;2.35;1.50;;;;;;;;;;5008640;28;20186;-71
2022/06/22 10:31:30;;;;;;;3.03;1.17;;;;;;;;;;5007088;28;21185;-71
2022/06/22 10:33:58;;;;;;;4.43;1.48;;;;;;;;;;5007014;28;20194;-71
2022/06/22 10:36:32;;;;;;;3.78;1.10;;;;;;;;;;5007066;28;20182;-71
2022/06/22 10:39:16;;;;;;;2.45;1.70;;;;;;;;;;4989221;28;20312;-71
2022/06/22 10:47:20;;;;;;;2.83;1.17;;;;;;;;;;5030927;28;20197;-71
2022/06/22 10:49:45;;;;;;;1.30;1.10;;;;;;;;;;5033035;28;20651;-71
2022/06/22 10:52:17;;;;;;;3.30;1.37;;;;;;;;;;5015324;28;20221;-71
2022/06/22 10:54:57;;;;;;;3.25;1.00;;;;;;;;;;5029571;28;20186;-71
2022/06/22 10:57:52;;;;;;;1.50;1.00;;;;;;;;;;5029828;28;20178;-71
2022/06/22 11:00:17;;;;;;;2.40;0.90;;;;;;;;;;5003270;28;20356;-71
2022/06/22 11:02:48;;;;;;;2.10;1.05;;;;;;;;;;5033214;28;20656;-71
2022/06/22 11:05:16;;;;;;;2.15;1.35;;;;;;;;;;5032598;28;20243;-71
2022/06/22 11:07:49;;;;;;;2.33;1.08;;;;;;;;;;5032797;28;20174;-69
2022/06/22 11:10:41;;;;;;;4.85;1.23;;;;;;;;;;5036113;28;20236;-70
2022/06/22 11:13:12;;;;;;;3.17;1.05;;;;;;;;;;4992793;28;20194;-70
2022/06/22 11:15:53;;;;;;;1.77;0.90;;;;;;;;;;5017205;28;20249;-71
2022/06/22 11:18:37;;;;;;;3.05;1.00;;;;;;;;;;4991719;28;20181;-70
2022/06/22 11:21:05;;;;;;;2.58;1.10;;;;;;;;;;4981954;28;20939;-71
2022/06/22 11:23:39;;;;;;;2.63;1.00;;;;;;;;;;5007354;28;20205;-70
2022/06/22 11:32:30;;;;;;;3.45;0.90;;;;;;;;;;5006365;28;20205;-70
2022/06/22 11:35:02;;;;;;;2.22;0.90;;;;;;;;;;4912384;29;20189;-70
2022/06/22 11:37:42;;;;;;;1.45;1.05;;;;;;;;;;4991529;28;20240;-70
2022/06/22 11:40:07;;;;;;;2.60;1.00;;;;;;;;;;5006333;28;20469;-70
2022/06/22 11:42:35;;;;;;;3.17;0.90;;;;;;;;;;5008195;28;20189;-70
2022/06/22 11:47:53;;;;;;;2.25;0.90;;;;;;;;;;5003429;28;20235;-70
2022/06/22 11:53:03;;;;;;;4.97;0.80;;;;;;;;;;4996227;28;20240;-69
2022/06/22 11:55:33;;;;;;;2.28;0.90;;;;;;;;;;4995613;28;20741;-70
2022/06/22 11:58:11;;;;;;;4.95;1.00;;;;;;;;;;4978134;28;20178;-70
2022/06/22 12:00:53;;;;;;;2.83;0.90;;;;;;;;;;5003011;28;20305;-69
2022/06/22 12:03:18;;;;;;;1.45;0.80;;;;;;;;;;4996561;28;20187;-70
2022/06/22 12:06:03;;;;;;;2.20;0.65;;;;;;;;;;4980024;28;20314;-69
2022/06/22 12:08:34;;;;;;;4.00;1.05;;;;;;;;;;4995673;28;20186;-70
2022/06/22 12:11:02;;;;;;;1.90;0.70;;;;;;;;;;4997038;28;20197;-70
2022/06/22 12:13:33;;;;;;;1.75;1.05;;;;;;;;;;5000099;28;20183;-70
2022/06/22 12:15:58;;;;;;;1.83;0.80;;;;;;;;;;4998532;28;20199;-70
2022/06/22 12:18:23;;;;;;;1.37;0.77;;;;;;;;;;4973284;28;20568;-71
2022/06/22 12:21:07;;;;;;;1.90;0.87;;;;;;;;;;4995618;28;20221;-69
2022/06/22 12:23:33;;;;;;;2.45;0.90;;;;;;;;;;4994391;28;20186;-70
2022/06/22 12:26:18;;;;;;;3.33;1.05;;;;;;;;;;4995457;28;20247;-69
2022/06/22 12:28:58;;;;;;;1.27;0.80;;;;;;;;;;4997459;28;20177;-70
2022/06/22 12:31:26;;;;;;;2.53;1.00;;;;;;;;;;4996424;28;20247;-70
2022/06/22 12:34:14;;;;;;;2.05;1.02;;;;;;;;;;4985444;28;20174;-69
2022/06/22 12:36:40;;;;;;;1.30;0.80;;;;;;;;;;4991313;28;20460;-70
2022/06/22 12:39:10;;;;;;;3.58;1.35;;;;;;;;;;4997946;28;20204;-69
2022/06/22 12:41:35;;;;;;;4.38;0.90;;;;;;;;;;4996904;28;20237;-70
2022/06/22 12:44:06;;;;;;;2.63;0.70;;;;;;;;;;5001673;28;20624;-70
2022/06/22 12:46:40;;;;;;;2.45;1.13;;;;;;;;;;5008540;28;20183;-70
2022/06/22 12:49:24;;;;;;;3.83;1.13;;;;;;;;;;5011713;28;20494;-70
2022/06/22 12:51:51;;;;;;;3.13;1.00;;;;;;;;;;5010098;28;20292;-70
2022/06/22 12:54:22;;;;;;;2.67;1.02;;;;;;;;;;5010056;28;20221;-70
2022/06/22 12:56:50;;;;;;;2.65;0.88;;;;;;;;;;5011826;28;20210;-70
2022/06/22 12:59:19;;;;;;;3.63;1.02;;;;;;;;;;5010802;28;20268;-70
2022/06/22 13:01:45;;;;;;;4.15;1.20;;;;;;;;;;5012273;28;20280;-69
2022/06/22 13:04:16;;;;;;;3.15;1.00;;;;;;;;;;5011711;28;20241;-70
2022/06/22 13:06:45;;;;;;;3.60;0.90;;;;;;;;;;5011597;28;20478;-70
2022/06/22 13:09:11;;;;;;;2.05;0.80;;;;;;;;;;5010002;28;20567;-70
2022/06/22 13:11:37;;;;;;;2.70;1.27;;;;;;;;;;5010363;28;20576;-70
2022/06/22 13:14:18;;;;;;;3.83;1.40;;;;;;;;;;5010187;28;20365;-71
2022/06/22 13:16:52;;;;;;;2.25;1.23;;;;;;;;;;4993623;28;21447;-71
2022/06/22 13:19:27;;;;;;;3.40;1.33;;;;;;;;;;4992702;28;20192;-69
2022/06/22 13:22:09;;;;;;;4.07;1.38;;;;;;;;;;4995820;28;20210;-70
2022/06/22 13:24:45;;;;;;;3.17;1.10;;;;;;;;;;4996660;28;20253;-70
2022/06/22 13:27:13;;;;;;;3.10;1.00;;;;;;;;;;4993494;28;20197;-70
2022/06/22 13:29:43;;;;;;;4.35;1.13;;;;;;;;;;4995984;28;20190;-69
2022/06/22 13:32:10;;;;;;;3.15;1.42;;;;;;;;;;4996774;28;20343;-70
2022/06/22 13:34:44;;;;;;;3.45;0.98;;;;;;;;;;4996624;28;20271;-69
2022/06/22 13:37:10;;;;;;;3.35;1.05;;;;;;;;;;4984329;28;20212;-70
2022/06/22 13:39:41;;;;;;;3.03;0.90;;;;;;;;;;4978103;28;20265;-70
2022/06/22 13:42:07;;;;;;;1.98;1.00;;;;;;;;;;4977390;28;20487;-70
2022/06/22 13:44:32;;;;;;;4.68;1.20;;;;;;;;;;4976943;28;20628;-70
2022/06/22 13:47:12;;;;;;;2.60;1.35;;;;;;;;;;4995547;28;20185;-70
2022/06/22 13:50:52;;;;;;;3.13;1.10;;;;;;;;;;4995874;28;20181;-70
2022/06/22 13:52:49;;;;;;;3.88;1.20;;;;;;;;;;4986989;28;20201;-70
2022/06/22 13:55:17;;;;;;;2.30;1.00;;;;;;;;;;4995606;28;20193;-69
2022/06/22 13:57:48;;;;;;;4.57;1.20;;;;;;;;;;5002490;28;21217;-70
2022/06/22 14:00:16;;;;;;;4.30;1.10;;;;;;;;;;5004856;28;20892;-70
2022/06/22 14:02:58;;;;;;;2.58;1.35;;;;;;;;;;5000213;28;20196;-69
2022/06/22 14:05:23;;;;;;;2.55;1.20;;;;;;;;;;4998792;28;20194;-70
2022/06/22 14:07:52;;;;;;;3.05;1.10;;;;;;;;;;4981567;28;20193;-71
2022/06/22 14:10:27;;;;;;;4.18;1.30;;;;;;;;;;4999124;28;20802;-70
2022/06/22 14:12:57;;;;;;;2.80;1.40;;;;;;;;;;4983531;28;20277;-70
2022/06/22 14:15:29;;;;;;;1.38;1.23;;;;;;;;;;5002084;28;20183;-70
2022/06/22 14:18:02;;;;;;;2.08;1.23;;;;;;;;;;4991049;28;20174;-69
2022/06/22 14:20:30;;;;;;;3.80;1.45;;;;;;;;;;4999927;28;20671;-70
2022/06/22 14:23:04;;;;;;;5.40;1.23;;;;;;;;;;5000065;28;20190;-70
2022/06/22 14:25:30;;;;;;;1.25;1.10;;;;;;;;;;4998274;28;20358;-71
2022/06/22 14:28:02;;;;;;;3.37;1.30;;;;;;;;;;4995924;28;20265;-72
2022/06/22 14:30:40;;;;;;;2.78;1.40;;;;;;;;;;4997904;28;20549;-70
2022/06/22 14:33:05;;;;;;;1.50;1.00;;;;;;;;;;4999880;28;20170;-70
2022/06/22 14:35:43;;;;;;;2.93;1.13;;;;;;;;;;5001677;28;20186;-71
2022/06/22 14:38:16;;;;;;;2.28;1.15;;;;;;;;;;4996867;28;20458;-72
2022/06/22 14:40:50;;;;;;;3.65;1.40;;;;;;;;;;5009022;28;20205;-72
2022/06/22 14:43:24;;;;;;;5.10;1.30;;;;;;;;;;5000413;28;20825;-72
2022/06/22 14:45:55;;;;;;;2.28;1.10;;;;;;;;;;5013716;28;20190;-72
2022/06/22 14:48:20;;;;;;;0.95;0.70;;;;;;;;;;5015431;28;20253;-72
2022/06/22 14:50:49;;;;;;;1.03;0.60;;;;;;;;;;4994354;28;20348;-72
2022/06/22 14:53:33;;;;;;;2.80;1.15;;;;;;;;;;5013033;28;20548;-72
2022/06/22 14:56:05;;;;;;;5.28;1.38;;;;;;;;;;5011202;28;20186;-72
2022/06/22 14:58:56;;;;;;;6.55;0.70;;;;;;;;;;5012948;28;20171;-72
2022/06/22 15:01:27;;;;;;;3.05;0.77;;;;;;;;;;5008096;28;20202;-72
2022/06/22 15:04:11;;;;;;;1.52;1.00;;;;;;;;;;4993991;28;20556;-72
2022/06/22 15:06:37;;;;;;;2.08;1.13;;;;;;;;;;5009902;28;20190;-74
2022/06/22 15:09:05;;;;;;;2.42;0.80;;;;;;;;;;4998935;28;20186;-73
2022/06/22 15:14:25;;;;;;;2.45;0.80;;;;;;;;;;5011166;28;20702;-74
2022/06/22 15:16:52;;;;;;;5.32;0.93;;;;;;;;;;4999271;28;20198;-73
2022/06/22 15:19:22;;;;;;;2.70;0.98;;;;;;;;;;4981213;28;20174;-73
2022/06/22 15:21:54;;;;;;;3.80;1.20;;;;;;;;;;4984091;28;20194;-73
2022/06/22 15:24:39;;;;;;;5.57;1.17;;;;;;;;;;4998478;28;20190;-74
2022/06/22 15:27:33;;;;;;;4.03;0.93;;;;;;;;;;4994415;28;20174;-74
2022/06/22 15:30:02;;;;;;;2.78;1.05;;;;;;;;;;4975456;28;20870;-74
2022/06/22 15:32:30;;;;;;;3.15;1.20;;;;;;;;;;4997294;28;20203;-74
2022/06/22 15:35:01;;;;;;;6.10;1.00;;;;;;;;;;4997776;28;20326;-74
2022/06/22 15:37:32;;;;;;;2.78;1.10;;;;;;;;;;4997438;28;20174;-73